aviador You're here:

KIXA Decoded Metar

in
Report Time2017-12-16 16:35:00
UTC Time2017-12-16 16:43:39
Flight Rules vfr VFR
Wind280° at 06 kt
W.Decomp.*RWY 20: 1.0 kt HW 5.9 kt RCW
W.Rank280° ranks 24
Current wind is below 280° avg. (6.0)
Visibility9999 m
Phenomena:N/A
Clouds:N/A
Expected CloudBase > 4,400 ft AGL from Temp-Dew spread
CeilingNone
Temp06°C
Dew Point-5°C (46% RH)
AAT1.3°C
QNH1024 hPa
Raw Report
METAR KIXA 161635Z AUTO 28006KT 10SM CLR 06/M05 A3024 RMK AO2=

Extra information for KIXA:More info

Social comments